Time;durP1;ratioP1;P1;durP2;ratioP2;P2;SDS_P1;SDS_P2;PMS_P1;PMS_P2;Temp;Humidity;BMP_temperature;BMP_pressure;BME280_temperature;BME280_humidity;BME280_pressure;Samples;Min_cycle;Max_cycle;Signal;HPM_P1;HPM_P2
2023/05/07 00:01:12;;;;;;;6.68;3.10;;;;;;;;;;4989542;28;103266;-80
2023/05/07 00:03:38;;;;;;;8.48;2.78;;;;;;;;;;4990707;28;92716;-80
2023/05/07 00:06:06;;;;;;;7.38;3.13;;;;;;;;;;4987731;28;93080;-80
2023/05/07 00:08:32;;;;;;;6.60;2.63;;;;;;;;;;4977862;28;92600;-80
2023/05/07 00:10:59;;;;;;;7.47;3.00;;;;;;;;;;4977427;28;93825;-80
2023/05/07 00:13:25;;;;;;;5.55;2.72;;;;;;;;;;4962202;28;92579;-80
2023/05/07 00:15:52;;;;;;;6.47;3.22;;;;;;;;;;4955407;28;93082;-80
2023/05/07 00:18:22;;;;;;;7.18;2.78;;;;;;;;;;4954370;28;95073;-79
2023/05/07 00:20:48;;;;;;;8.30;3.35;;;;;;;;;;4958641;28;92464;-78
2023/05/07 00:23:15;;;;;;;6.72;2.80;;;;;;;;;;4958087;28;95546;-79
2023/05/07 00:25:41;;;;;;;8.02;2.97;;;;;;;;;;4953593;28;95487;-79
2023/05/07 00:28:08;;;;;;;5.95;2.85;;;;;;;;;;4951751;28;93902;-79
2023/05/07 00:30:34;;;;;;;6.38;2.67;;;;;;;;;;4951604;28;93127;-79
2023/05/07 00:33:01;;;;;;;5.95;2.80;;;;;;;;;;4951683;28;92458;-79
2023/05/07 00:35:28;;;;;;;5.45;2.30;;;;;;;;;;4951918;28;93448;-78
2023/05/07 00:37:55;;;;;;;6.50;2.40;;;;;;;;;;4949942;28;92484;-79
2023/05/07 00:40:22;;;;;;;4.93;2.75;;;;;;;;;;4952929;28;92132;-79
2023/05/07 00:42:48;;;;;;;6.97;2.78;;;;;;;;;;4950736;28;94527;-79
2023/05/07 00:45:16;;;;;;;6.63;2.70;;;;;;;;;;4950752;28;92890;-79
2023/05/07 00:47:43;;;;;;;8.82;2.80;;;;;;;;;;4951921;28;94993;-78
2023/05/07 00:50:10;;;;;;;6.22;2.67;;;;;;;;;;4952250;28;93477;-79
2023/05/07 00:52:38;;;;;;;8.23;3.22;;;;;;;;;;4950987;28;93741;-79
2023/05/07 00:55:05;;;;;;;7.63;2.83;;;;;;;;;;4952519;28;99389;-79
2023/05/07 00:57:34;;;;;;;7.03;2.97;;;;;;;;;;4952064;28;92914;-79
2023/05/07 01:00:01;;;;;;;7.10;3.20;;;;;;;;;;4948202;28;92415;-79
2023/05/07 01:02:28;;;;;;;8.63;2.67;;;;;;;;;;4949147;28;92848;-79
2023/05/07 01:04:55;;;;;;;6.90;2.63;;;;;;;;;;4950855;28;92745;-79
2023/05/07 01:07:22;;;;;;;;;;;;;;;;;;4952241;28;92810;-79
2023/05/07 01:09:49;;;;;;;6.53;3.40;;;;;;;;;;4955382;28;110024;-79
2023/05/07 01:12:15;;;;;;;7.50;3.53;;;;;;;;;;4950183;28;95227;-79
2023/05/07 01:14:42;;;;;;;6.82;3.05;;;;;;;;;;4951051;28;95709;-79
2023/05/07 01:17:09;;;;;;;8.45;3.40;;;;;;;;;;4949551;28;94882;-79
2023/05/07 01:19:36;;;;;;;7.28;2.70;;;;;;;;;;4949618;28;92577;-79
2023/05/07 01:22:07;;;;;;;6.93;3.05;;;;;;;;;;4933992;28;93009;-79
2023/05/07 01:24:43;;;;;;;6.00;2.85;;;;;;;;;;4948791;28;95376;-79
2023/05/07 01:27:11;;;;;;;8.93;2.95;;;;;;;;;;4949388;28;92696;-79
2023/05/07 01:29:37;;;;;;;7.72;3.10;;;;;;;;;;4949506;28;95666;-79
2023/05/07 01:32:05;;;;;;;6.50;3.25;;;;;;;;;;4952173;28;95818;-79
2023/05/07 01:34:32;;;;;;;5.38;2.63;;;;;;;;;;4932675;28;96127;-79
2023/05/07 01:36:59;;;;;;;;;;;;;;;;;;4949191;28;95426;-79
2023/05/07 01:39:26;;;;;;;6.13;2.55;;;;;;;;;;4951350;28;94287;-79
2023/05/07 01:41:56;;;;;;;5.97;2.83;;;;;;;;;;4950078;28;92575;-80
2023/05/07 01:44:24;;;;;;;7.25;3.63;;;;;;;;;;4948104;28;95697;-80
2023/05/07 01:46:51;;;;;;;6.07;3.00;;;;;;;;;;4949331;28;92558;-79
2023/05/07 01:49:18;;;;;;;7.78;3.15;;;;;;;;;;4949252;28;95421;-80
2023/05/07 01:51:44;;;;;;;6.28;3.15;;;;;;;;;;4950847;28;95215;-79
2023/05/07 01:54:11;;;;;;;5.78;2.65;;;;;;;;;;4954204;28;91784;-79
2023/05/07 01:56:38;;;;;;;6.82;3.20;;;;;;;;;;4942890;28;94084;-79
2023/05/07 01:59:05;;;;;;;6.18;3.33;;;;;;;;;;4963643;28;92690;-79
2023/05/07 02:01:31;;;;;;;6.63;3.30;;;;;;;;;;4949737;28;94790;-79
2023/05/07 02:03:58;;;;;;;6.18;3.05;;;;;;;;;;4949783;28;93984;-79
2023/05/07 02:06:27;;;;;;;6.82;2.88;;;;;;;;;;4947856;28;93168;-79
2023/05/07 02:08:59;;;;;;;5.25;2.85;;;;;;;;;;4948162;28;95084;-79
2023/05/07 02:11:26;;;;;;;6.15;2.78;;;;;;;;;;4946255;28;95832;-80
2023/05/07 02:13:53;;;;;;;12.38;2.97;;;;;;;;;;4951511;28;92921;-79
2023/05/07 02:16:21;;;;;;;9.45;3.88;;;;;;;;;;4948235;28;96038;-79
2023/05/07 02:18:47;;;;;;;12.45;3.08;;;;;;;;;;4950639;28;91741;-79
2023/05/07 02:21:15;;;;;;;7.00;3.20;;;;;;;;;;4950631;28;92520;-79
2023/05/07 02:23:41;;;;;;;6.55;2.58;;;;;;;;;;4931646;28;95979;-79
2023/05/07 02:26:08;;;;;;;6.68;3.65;;;;;;;;;;4946800;28;94882;-79
2023/05/07 02:28:37;;;;;;;7.55;3.00;;;;;;;;;;4947842;28;98159;-78
2023/05/07 02:31:05;;;;;;;4.50;2.20;;;;;;;;;;4947751;28;96550;-78
2023/05/07 02:33:32;;;;;;;;;;;;;;;;;;4948733;28;92915;-78
2023/05/07 02:36:05;;;;;;;4.95;2.10;;;;;;;;;;4951734;28;107667;-78
2023/05/07 02:38:33;;;;;;;5.22;2.25;;;;;;;;;;4930567;28;92582;-78
2023/05/07 02:41:00;;;;;;;4.15;2.17;;;;;;;;;;4948402;28;95506;-77
2023/05/07 02:43:27;;;;;;;6.70;2.30;;;;;;;;;;4950500;28;92520;-78
2023/05/07 02:46:02;;;;;;;4.32;2.25;;;;;;;;;;4947374;28;92547;-78
2023/05/07 02:48:29;;;;;;;5.57;2.83;;;;;;;;;;4946871;28;94476;-78
2023/05/07 02:50:56;;;;;;;8.85;2.83;;;;;;;;;;4948386;28;95920;-78
2023/05/07 02:53:25;;;;;;;7.72;3.00;;;;;;;;;;4947986;28;93084;-78
2023/05/07 02:55:58;;;;;;;6.55;2.97;;;;;;;;;;4947794;28;94041;-79
2023/05/07 02:58:25;;;;;;;6.35;2.53;;;;;;;;;;4950426;28;95864;-79
2023/05/07 03:00:52;;;;;;;6.65;2.53;;;;;;;;;;4948231;28;94759;-79
2023/05/07 03:03:29;;;;;;;9.23;3.90;;;;;;;;;;4947965;28;95581;-79
2023/05/07 03:05:56;;;;;;;6.18;2.90;;;;;;;;;;4949860;28;92841;-79
2023/05/07 03:08:23;;;;;;;6.50;3.65;;;;;;;;;;4945011;28;95370;-79
2023/05/07 03:10:49;;;;;;;6.43;2.97;;;;;;;;;;4949194;28;94039;-79
2023/05/07 03:13:16;;;;;;;7.63;3.83;;;;;;;;;;4949608;28;92450;-78
2023/05/07 03:15:43;;;;;;;6.15;2.55;;;;;;;;;;4946663;28;95470;-79
2023/05/07 03:18:10;;;;;;;6.25;2.70;;;;;;;;;;4948345;28;93000;-79
2023/05/07 03:20:37;;;;;;;5.10;2.80;;;;;;;;;;4947040;28;92844;-79
2023/05/07 03:23:03;;;;;;;4.88;2.25;;;;;;;;;;4921233;28;95921;-79
2023/05/07 03:25:30;;;;;;;5.40;2.80;;;;;;;;;;4947854;28;92526;-79
2023/05/07 03:27:56;;;;;;;5.78;2.80;;;;;;;;;;4931911;28;96609;-79
2023/05/07 03:30:29;;;;;;;6.30;2.63;;;;;;;;;;4946495;28;100238;-80
2023/05/07 03:32:56;;;;;;;5.88;2.70;;;;;;;;;;4931999;28;92160;-79
2023/05/07 03:35:22;;;;;;;4.53;2.42;;;;;;;;;;4947470;28;92743;-78
2023/05/07 03:37:50;;;;;;;6.45;2.95;;;;;;;;;;4947692;28;94150;-78
2023/05/07 03:40:17;;;;;;;7.18;2.90;;;;;;;;;;4945490;28;94970;-77
2023/05/07 03:42:48;;;;;;;8.00;3.72;;;;;;;;;;4970730;28;100999;-77
2023/05/07 03:45:16;;;;;;;6.13;2.90;;;;;;;;;;4966769;28;92912;-77
2023/05/07 03:47:48;;;;;;;5.88;2.60;;;;;;;;;;4966784;28;93959;-78
2023/05/07 03:50:18;;;;;;;7.28;3.35;;;;;;;;;;4966380;28;95750;-77
2023/05/07 03:52:44;;;;;;;7.18;3.38;;;;;;;;;;4965487;28;95763;-77
2023/05/07 03:55:12;;;;;;;8.23;3.28;;;;;;;;;;4961583;28;95627;-78
2023/05/07 03:57:45;;;;;;;7.97;3.33;;;;;;;;;;4967400;28;92291;-78
2023/05/07 04:00:12;;;;;;;7.32;3.17;;;;;;;;;;4950936;28;92457;-77
2023/05/07 04:02:48;;;;;;;6.95;3.47;;;;;;;;;;4955421;28;97142;-77
2023/05/07 04:05:21;;;;;;;;;;;;;;;;;;4952221;28;96192;-78
2023/05/07 04:07:51;;;;;;;7.72;2.65;;;;;;;;;;4967587;28;97333;-78
2023/05/07 04:10:23;;;;;;;5.85;2.67;;;;;;;;;;4951181;28;95726;-78
2023/05/07 04:12:53;;;;;;;7.47;3.58;;;;;;;;;;4953946;28;92614;-78
2023/05/07 04:15:21;;;;;;;5.45;2.75;;;;;;;;;;4947120;28;94705;-78
2023/05/07 04:17:48;;;;;;;5.22;2.67;;;;;;;;;;4945730;28;95661;-78
2023/05/07 04:20:17;;;;;;;6.05;2.67;;;;;;;;;;4947166;28;92609;-78
2023/05/07 04:22:49;;;;;;;6.10;3.15;;;;;;;;;;4946858;28;99587;-78
2023/05/07 04:25:16;;;;;;;6.57;2.63;;;;;;;;;;4949738;28;95207;-77
2023/05/07 04:27:43;;;;;;;6.50;2.83;;;;;;;;;;4946673;28;95222;-77
2023/05/07 04:30:12;;;;;;;6.57;2.58;;;;;;;;;;4946414;28;95369;-77
2023/05/07 04:32:39;;;;;;;6.22;2.90;;;;;;;;;;4946646;28;93010;-77
2023/05/07 04:35:06;;;;;;;8.65;2.95;;;;;;;;;;4948317;28;93362;-78
2023/05/07 04:37:33;;;;;;;5.80;2.47;;;;;;;;;;4946068;28;93799;-78
2023/05/07 04:40:00;;;;;;;7.80;3.60;;;;;;;;;;4952454;28;92583;-79
2023/05/07 04:42:27;;;;;;;8.10;2.58;;;;;;;;;;4955103;28;96044;-77
2023/05/07 04:44:54;;;;;;;;;;;;;;;;;;4947063;28;95989;-80
2023/05/07 04:47:22;;;;;;;7.85;2.80;;;;;;;;;;4959995;28;91802;-79
2023/05/07 04:49:49;;;;;;;;;;;;;;;;;;4966002;28;95839;-79
2023/05/07 04:52:16;;;;;;;6.75;2.80;;;;;;;;;;4953196;28;100796;-79
2023/05/07 04:54:43;;;;;;;7.13;2.92;;;;;;;;;;4966971;28;95632;-79
2023/05/07 04:57:10;;;;;;;;;;;;;;;;;;4959843;28;95721;-79
2023/05/07 04:59:37;;;;;;;6.03;2.40;;;;;;;;;;4949783;28;115231;-78
2023/05/07 05:02:04;;;;;;;7.20;3.30;;;;;;;;;;4951275;28;94794;-78
2023/05/07 05:04:31;;;;;;;8.27;2.60;;;;;;;;;;4947848;28;96018;-78
2023/05/07 05:06:58;;;;;;;5.13;2.55;;;;;;;;;;4937174;28;92771;-79
2023/05/07 05:09:24;;;;;;;6.70;2.80;;;;;;;;;;4952244;28;95004;-79
2023/05/07 05:11:51;;;;;;;5.85;2.60;;;;;;;;;;4951142;28;92313;-79
2023/05/07 05:14:17;;;;;;;5.18;2.70;;;;;;;;;;4949440;28;92594;-79
2023/05/07 05:16:44;;;;;;;6.53;2.83;;;;;;;;;;4948435;28;95448;-79
2023/05/07 05:19:11;;;;;;;6.97;3.60;;;;;;;;;;4947899;28;95643;-78
2023/05/07 05:21:39;;;;;;;6.72;2.97;;;;;;;;;;4948805;28;97204;-79
2023/05/07 05:24:08;;;;;;;6.63;2.78;;;;;;;;;;4949072;28;96684;-78
2023/05/07 05:26:35;;;;;;;6.88;2.78;;;;;;;;;;4948827;28;92494;-78
2023/05/07 05:29:02;;;;;;;7.35;3.10;;;;;;;;;;4949266;28;95726;-78
2023/05/07 05:31:30;;;;;;;7.78;2.97;;;;;;;;;;4952280;28;95351;-78
2023/05/07 05:33:56;;;;;;;9.38;4.20;;;;;;;;;;4949067;28;93375;-78
2023/05/07 05:36:24;;;;;;;7.35;2.88;;;;;;;;;;4947845;28;95131;-78
2023/05/07 05:38:53;;;;;;;7.13;3.30;;;;;;;;;;4948566;28;93052;-79
2023/05/07 05:41:21;;;;;;;;;;;;;;;;;;4949515;28;94533;-78
2023/05/07 05:43:48;;;;;;;8.77;3.50;;;;;;;;;;4949196;28;124112;-78
2023/05/07 05:46:15;;;;;;;6.90;3.10;;;;;;;;;;4949260;28;92626;-77
2023/05/07 05:48:42;;;;;;;7.63;3.20;;;;;;;;;;4948556;28;95063;-77
2023/05/07 05:51:10;;;;;;;7.90;3.60;;;;;;;;;;4948950;28;95863;-78
2023/05/07 05:53:37;;;;;;;8.48;3.40;;;;;;;;;;4951765;28;93316;-78
2023/05/07 05:56:05;;;;;;;8.98;3.42;;;;;;;;;;4950013;28;93027;-78
2023/05/07 05:58:33;;;;;;;7.95;3.60;;;;;;;;;;4947677;28;92559;-77
2023/05/07 06:01:03;;;;;;;7.78;3.05;;;;;;;;;;4948506;28;95741;-77
2023/05/07 06:03:30;;;;;;;9.00;3.30;;;;;;;;;;4948169;28;95886;-77
2023/05/07 06:06:00;;;;;;;7.47;3.10;;;;;;;;;;4949131;28;93033;-78
2023/05/07 06:08:29;;;;;;;7.53;3.10;;;;;;;;;;4946708;28;95694;-77
2023/05/07 06:10:56;;;;;;;6.70;3.15;;;;;;;;;;4948584;28;94838;-78
2023/05/07 06:13:22;;;;;;;8.38;3.20;;;;;;;;;;4952145;28;93254;-78
2023/05/07 06:15:50;;;;;;;8.60;3.50;;;;;;;;;;4949333;28;95568;-78
2023/05/07 06:18:16;;;;;;;10.07;3.35;;;;;;;;;;4949740;28;93617;-79
2023/05/07 06:20:43;;;;;;;10.75;3.22;;;;;;;;;;4949929;28;92767;-79
2023/05/07 06:23:16;;;;;;;9.57;3.72;;;;;;;;;;4952149;28;94440;-78
2023/05/07 06:25:50;;;;;;;14.00;3.55;;;;;;;;;;4942787;28;92415;-78
2023/05/07 06:28:18;;;;;;;10.45;3.70;;;;;;;;;;4932734;28;94126;-79
2023/05/07 06:30:45;;;;;;;8.93;3.78;;;;;;;;;;4968097;28;100044;-79
2023/05/07 06:33:12;;;;;;;9.55;3.45;;;;;;;;;;4966800;28;95318;-79
2023/05/07 06:35:38;;;;;;;7.85;3.35;;;;;;;;;;4953014;28;97798;-79
2023/05/07 06:38:05;;;;;;;8.50;3.38;;;;;;;;;;4947552;28;92526;-79
2023/05/07 06:40:32;;;;;;;7.43;3.20;;;;;;;;;;4947059;28;92565;-79
2023/05/07 06:42:59;;;;;;;8.38;3.53;;;;;;;;;;4947585;28;95890;-79
2023/05/07 06:45:45;;;;;;;7.78;3.53;;;;;;;;;;4948716;28;93651;-78
2023/05/07 06:48:12;;;;;;;9.15;3.42;;;;;;;;;;4948181;28;95747;-78
2023/05/07 06:50:49;;;;;;;6.85;3.28;;;;;;;;;;4948400;28;96999;-77
2023/05/07 06:53:15;;;;;;;7.90;3.40;;;;;;;;;;4949695;28;92440;-78
2023/05/07 06:55:42;;;;;;;7.32;3.35;;;;;;;;;;4949724;28;92733;-76
2023/05/07 06:58:09;;;;;;;9.20;3.72;;;;;;;;;;4948986;28;96836;-77
2023/05/07 07:00:37;;;;;;;10.48;3.83;;;;;;;;;;4947017;28;98147;-77
2023/05/07 07:03:05;;;;;;;11.18;4.55;;;;;;;;;;4947960;28;94815;-78
2023/05/07 07:05:32;;;;;;;7.43;3.40;;;;;;;;;;4945778;28;92650;-78
2023/05/07 07:08:01;;;;;;;16.77;5.78;;;;;;;;;;4942088;28;95584;-78
2023/05/07 07:10:28;;;;;;;8.70;3.92;;;;;;;;;;4945918;28;94819;-77
2023/05/07 07:12:55;;;;;;;;;;;;;;;;;;4945929;28;93101;-77
2023/05/07 07:15:22;;;;;;;9.32;4.15;;;;;;;;;;4950960;28;97087;-78
2023/05/07 07:17:49;;;;;;;;;;;;;;;;;;4946941;28;95781;-78
2023/05/07 07:20:16;;;;;;;9.18;3.40;;;;;;;;;;4953006;28;92490;-79
2023/05/07 07:22:44;;;;;;;9.43;4.45;;;;;;;;;;4945784;28;97834;-79
2023/05/07 07:25:11;;;;;;;9.88;5.10;;;;;;;;;;4956680;28;93039;-78
2023/05/07 07:27:39;;;;;;;11.73;5.88;;;;;;;;;;4948464;28;95530;-78
2023/05/07 07:30:07;;;;;;;10.98;5.55;;;;;;;;;;4940340;28;94949;-78
2023/05/07 07:32:36;;;;;;;9.88;4.70;;;;;;;;;;4965210;28;92483;-77
2023/05/07 07:35:04;;;;;;;14.30;9.48;;;;;;;;;;4964838;28;94988;-78
2023/05/07 07:37:31;;;;;;;9.43;5.55;;;;;;;;;;4962770;28;95906;-77
2023/05/07 07:39:58;;;;;;;9.50;4.60;;;;;;;;;;4959472;28;92011;-78
2023/05/07 07:42:24;;;;;;;10.95;6.15;;;;;;;;;;4967693;28;94105;-77
2023/05/07 07:44:52;;;;;;;9.40;4.55;;;;;;;;;;4966193;28;93151;-78
2023/05/07 07:47:21;;;;;;;12.40;7.70;;;;;;;;;;4964212;28;95552;-77
2023/05/07 07:49:49;;;;;;;16.30;10.15;;;;;;;;;;4953412;28;95513;-78
2023/05/07 07:52:18;;;;;;;14.00;9.07;;;;;;;;;;4961469;28;93013;-78
2023/05/07 07:54:45;;;;;;;15.10;9.45;;;;;;;;;;4965350;28;99826;-78
2023/05/07 07:57:11;;;;;;;14.27;9.07;;;;;;;;;;4968061;28;95249;-77
2023/05/07 07:59:39;;;;;;;16.00;10.02;;;;;;;;;;4963924;28;92835;-77
2023/05/07 08:02:06;;;;;;;11.50;6.28;;;;;;;;;;4957088;28;94269;-78
2023/05/07 08:04:34;;;;;;;;;;;;;;;;;;4967369;28;95182;-77
2023/05/07 08:07:03;;;;;;;11.48;6.00;;;;;;;;;;4951558;28;94552;-77
2023/05/07 08:09:33;;;;;;;8.25;4.22;;;;;;;;;;4963321;28;95498;-77
2023/05/07 08:12:02;;;;;;;12.80;7.13;;;;;;;;;;4970813;28;96359;-75
2023/05/07 08:14:31;;;;;;;11.48;6.53;;;;;;;;;;4968679;28;96874;-75
2023/05/07 08:16:58;;;;;;;9.82;5.10;;;;;;;;;;4950628;28;93183;-76
2023/05/07 08:19:25;;;;;;;14.13;8.93;;;;;;;;;;4969866;28;92518;-75
2023/05/07 08:21:52;;;;;;;13.10;8.70;;;;;;;;;;4971801;28;95143;-77
2023/05/07 08:24:19;;;;;;;8.52;4.85;;;;;;;;;;4956649;28;95596;-76
2023/05/07 08:26:46;;;;;;;11.07;5.75;;;;;;;;;;4975278;28;100386;-77
2023/05/07 08:29:13;;;;;;;12.77;7.57;;;;;;;;;;4976552;28;95342;-76
2023/05/07 08:31:40;;;;;;;13.27;8.38;;;;;;;;;;4978532;28;92403;-76
2023/05/07 08:34:07;;;;;;;10.50;5.93;;;;;;;;;;4970804;28;95768;-75
2023/05/07 08:36:38;;;;;;;8.48;4.15;;;;;;;;;;4958441;28;97657;-76
2023/05/07 08:39:06;;;;;;;10.70;5.88;;;;;;;;;;4961849;28;92464;-76
2023/05/07 08:41:33;;;;;;;8.73;3.70;;;;;;;;;;4956233;28;95067;-75
2023/05/07 08:44:02;;;;;;;9.88;5.10;;;;;;;;;;4947493;28;95523;-75
2023/05/07 08:46:31;;;;;;;7.72;3.80;;;;;;;;;;4968909;28;92536;-74
2023/05/07 08:48:58;;;;;;;7.78;3.88;;;;;;;;;;4969908;28;95528;-76
2023/05/07 08:51:25;;;;;;;9.73;4.63;;;;;;;;;;4967014;28;92492;-75
2023/05/07 08:53:52;;;;;;;8.30;3.30;;;;;;;;;;4942896;28;95536;-75
2023/05/07 08:56:26;;;;;;;8.07;2.88;;;;;;;;;;4946748;28;95128;-74
2023/05/07 08:58:56;;;;;;;7.53;3.13;;;;;;;;;;4959884;28;93231;-74
2023/05/07 09:01:24;;;;;;;6.45;2.70;;;;;;;;;;4960280;28;95077;-75
2023/05/07 09:03:51;;;;;;;6.13;2.65;;;;;;;;;;4957567;28;95932;-75
2023/05/07 09:06:19;;;;;;;7.68;3.25;;;;;;;;;;4968296;28;92558;-74
2023/05/07 09:08:53;;;;;;;5.82;2.40;;;;;;;;;;4970973;28;100050;-74
2023/05/07 09:11:23;;;;;;;5.47;2.22;;;;;;;;;;4964770;28;92519;-75
2023/05/07 09:13:55;;;;;;;10.13;2.60;;;;;;;;;;4969407;28;93027;-75
2023/05/07 09:16:23;;;;;;;7.28;2.83;;;;;;;;;;4966043;28;95590;-77
2023/05/07 09:18:54;;;;;;;7.28;2.92;;;;;;;;;;4970206;28;92285;-77
2023/05/07 09:21:22;;;;;;;7.78;2.35;;;;;;;;;;4961613;28;94872;-77
2023/05/07 09:23:52;;;;;;;7.15;2.58;;;;;;;;;;4955772;28;95337;-77
2023/05/07 09:26:21;;;;;;;7.80;3.05;;;;;;;;;;4959526;28;95571;-77
2023/05/07 09:28:48;;;;;;;8.43;3.33;;;;;;;;;;4967719;28;98061;-76
2023/05/07 09:31:15;;;;;;;8.10;3.00;;;;;;;;;;4970437;28;94334;-77
2023/05/07 09:33:44;;;;;;;7.28;3.05;;;;;;;;;;4967324;28;95078;-77
2023/05/07 09:36:12;;;;;;;7.88;3.08;;;;;;;;;;4964768;28;95712;-77
2023/05/07 09:38:41;;;;;;;11.85;3.72;;;;;;;;;;4946723;28;92986;-78
2023/05/07 09:41:12;;;;;;;8.95;4.43;;;;;;;;;;4956196;28;95046;-78
2023/05/07 09:43:53;;;;;;;10.85;4.65;;;;;;;;;;4963730;28;94940;-77
2023/05/07 09:46:25;;;;;;;10.23;5.13;;;;;;;;;;4939496;28;92724;-79
2023/05/07 09:48:52;;;;;;;9.80;5.18;;;;;;;;;;4960743;28;93679;-78
2023/05/07 09:51:26;;;;;;;9.20;4.97;;;;;;;;;;4962011;28;96898;-78
2023/05/07 09:53:55;;;;;;;11.02;6.75;;;;;;;;;;4967143;28;92904;-77
2023/05/07 09:56:24;;;;;;;11.65;6.47;;;;;;;;;;4949173;28;94071;-77
2023/05/07 09:58:51;;;;;;;8.20;4.60;;;;;;;;;;4965862;28;92842;-76
2023/05/07 10:01:19;;;;;;;10.25;5.97;;;;;;;;;;4966879;28;96148;-76
2023/05/07 10:03:46;;;;;;;11.32;6.00;;;;;;;;;;4966796;28;96149;-76
2023/05/07 10:06:14;;;;;;;10.30;5.43;;;;;;;;;;4965018;28;92480;-78
2023/05/07 10:08:42;;;;;;;10.73;5.97;;;;;;;;;;4948959;28;92739;-77
2023/05/07 10:11:09;;;;;;;13.57;7.78;;;;;;;;;;4968016;28;93153;-77
2023/05/07 10:13:37;;;;;;;9.02;5.57;;;;;;;;;;4966537;28;92583;-77
2023/05/07 10:16:06;;;;;;;9.95;6.00;;;;;;;;;;4957054;28;95488;-77
2023/05/07 10:18:40;;;;;;;10.38;6.03;;;;;;;;;;4959222;28;92852;-78
2023/05/07 10:21:19;;;;;;;10.73;6.88;;;;;;;;;;4963722;28;95420;-77
2023/05/07 10:24:00;;;;;;;12.30;7.18;;;;;;;;;;4950758;28;94302;-77
2023/05/07 10:26:31;;;;;;;13.05;5.57;;;;;;;;;;4966917;28;93212;-78
2023/05/07 10:29:01;;;;;;;11.32;6.45;;;;;;;;;;4959960;28;95628;-78
2023/05/07 10:31:37;;;;;;;13.25;9.10;;;;;;;;;;4967032;28;95759;-78
2023/05/07 10:34:13;;;;;;;13.05;7.60;;;;;;;;;;4967133;28;92187;-78
2023/05/07 10:36:40;;;;;;;12.50;7.68;;;;;;;;;;4969949;28;95110;-78
2023/05/07 10:39:08;;;;;;;13.77;7.53;;;;;;;;;;4958833;28;92574;-77
2023/05/07 10:41:36;;;;;;;13.68;8.60;;;;;;;;;;4969606;28;95156;-77
2023/05/07 10:44:03;;;;;;;11.00;7.25;;;;;;;;;;4959916;28;95919;-78
2023/05/07 10:46:35;;;;;;;13.65;7.75;;;;;;;;;;4965169;28;93155;-77
2023/05/07 10:49:08;;;;;;;11.27;6.85;;;;;;;;;;4954415;28;93886;-78
2023/05/07 10:51:45;;;;;;;11.70;6.60;;;;;;;;;;4947612;28;95099;-77
2023/05/07 10:54:24;;;;;;;10.45;5.00;;;;;;;;;;4963672;28;92487;-78
2023/05/07 10:57:30;;;;;;;13.80;8.27;;;;;;;;;;4957907;28;95456;-78
2023/05/07 11:00:00;;;;;;;13.93;9.15;;;;;;;;;;4971165;28;94204;-78
2023/05/07 11:02:50;;;;;;;13.43;8.13;;;;;;;;;;4963108;28;95270;-78
2023/05/07 11:05:23;;;;;;;14.60;9.25;;;;;;;;;;4960069;28;95707;-77
2023/05/07 11:08:02;;;;;;;11.88;7.38;;;;;;;;;;4951028;28;95236;-78
2023/05/07 11:10:50;;;;;;;12.93;9.25;;;;;;;;;;4964732;28;97599;-77
2023/05/07 11:13:44;;;;;;;17.35;11.80;;;;;;;;;;4953908;28;95543;-78
2023/05/07 11:16:22;;;;;;;16.70;10.75;;;;;;;;;;4965504;28;92763;-77
2023/05/07 11:18:56;;;;;;;15.93;10.55;;;;;;;;;;4956453;28;95470;-78
2023/05/07 11:21:37;;;;;;;12.18;6.45;;;;;;;;;;4951851;28;95426;-77
2023/05/07 11:24:21;;;;;;;12.65;7.85;;;;;;;;;;4970549;28;92913;-78
2023/05/07 11:26:54;;;;;;;11.57;5.53;;;;;;;;;;4951533;28;94924;-77
2023/05/07 11:29:23;;;;;;;14.07;8.27;;;;;;;;;;4969685;28;93042;-77
2023/05/07 11:31:55;;;;;;;9.18;4.47;;;;;;;;;;4968939;28;94000;-77
2023/05/07 11:34:26;;;;;;;12.85;8.20;;;;;;;;;;4963536;28;95188;-76
2023/05/07 11:36:55;;;;;;;10.07;3.85;;;;;;;;;;4966056;28;98895;-77
2023/05/07 11:39:35;;;;;;;10.48;4.50;;;;;;;;;;4933913;28;95071;-76
2023/05/07 11:42:02;;;;;;;7.65;4.50;;;;;;;;;;4948798;28;93252;-76
2023/05/07 11:44:41;;;;;;;9.48;5.00;;;;;;;;;;4965461;28;92845;-76
2023/05/07 11:47:08;;;;;;;8.75;4.75;;;;;;;;;;4970944;28;92777;-77
2023/05/07 11:49:34;;;;;;;10.25;5.00;;;;;;;;;;4965110;28;92523;-77
2023/05/07 11:52:01;;;;;;;14.68;9.88;;;;;;;;;;4967955;28;92783;-77
2023/05/07 11:54:36;;;;;;;13.93;8.40;;;;;;;;;;4966365;28;93920;-76
2023/05/07 11:57:03;;;;;;;12.00;7.03;;;;;;;;;;4969888;28;92924;-76
2023/05/07 11:59:29;;;;;;;13.30;8.43;;;;;;;;;;4957993;28;102090;-77
2023/05/07 12:01:57;;;;;;;15.45;9.32;;;;;;;;;;4950763;28;93369;-77
2023/05/07 12:04:24;;;;;;;12.48;7.65;;;;;;;;;;4963505;28;92775;-76
2023/05/07 12:06:53;;;;;;;10.63;6.00;;;;;;;;;;4970397;28;92906;-76
2023/05/07 12:09:20;;;;;;;8.70;4.50;;;;;;;;;;4977434;28;93087;-76
2023/05/07 12:11:47;;;;;;;7.65;4.18;;;;;;;;;;4974208;28;93817;-76
2023/05/07 12:14:15;;;;;;;11.02;4.75;;;;;;;;;;4958145;28;92993;-89
2023/05/07 12:16:42;;;;;;;10.57;6.00;;;;;;;;;;4954150;28;91777;-86
2023/05/07 12:19:12;;;;;;;9.32;5.40;;;;;;;;;;4956323;28;93108;-89
2023/05/07 12:21:41;;;;;;;10.73;5.70;;;;;;;;;;4956671;28;92502;-86
2023/05/07 12:24:08;;;;;;;8.20;4.10;;;;;;;;;;4943492;28;95288;-87
2023/05/07 12:26:37;;;;;;;10.48;4.85;;;;;;;;;;4959887;28;95133;-87
2023/05/07 12:29:04;;;;;;;11.40;6.03;;;;;;;;;;4955413;28;94160;-87
2023/05/07 12:31:30;;;;;;;11.98;6.63;;;;;;;;;;4952086;28;92471;-87
2023/05/07 12:33:57;;;;;;;11.93;5.90;;;;;;;;;;4958637;28;93464;-87
2023/05/07 12:36:24;;;;;;;10.63;6.07;;;;;;;;;;4960470;28;92401;-87
2023/05/07 12:38:51;;;;;;;8.65;3.80;;;;;;;;;;4954068;28;93302;-88
2023/05/07 12:41:18;;;;;;;8.98;4.53;;;;;;;;;;4957980;28;92454;-90
2023/05/07 12:43:45;;;;;;;8.27;3.92;;;;;;;;;;4955776;28;92872;-88
2023/05/07 12:46:16;;;;;;;7.57;3.55;;;;;;;;;;4953281;28;93387;-87
2023/05/07 12:48:45;;;;;;;8.80;3.97;;;;;;;;;;4990505;28;95891;-88
2023/05/07 12:51:13;;;;;;;8.65;3.60;;;;;;;;;;4977794;28;93010;-88
2023/05/07 12:53:42;;;;;;;8.48;3.33;;;;;;;;;;4968381;28;93505;-88
2023/05/07 12:56:09;;;;;;;8.65;3.60;;;;;;;;;;4976329;28;93049;-89
2023/05/07 12:58:35;;;;;;;7.20;3.70;;;;;;;;;;4975714;28;93237;-89
2023/05/07 13:01:06;;;;;;;8.40;3.60;;;;;;;;;;4975931;28;92682;-89
2023/05/07 13:03:36;;;;;;;7.13;2.92;;;;;;;;;;4977739;28;92443;-89
2023/05/07 13:06:04;;;;;;;7.65;2.92;;;;;;;;;;4975422;28;94793;-88
2023/05/07 13:08:32;;;;;;;8.05;3.88;;;;;;;;;;4965447;28;95897;-88
2023/05/07 13:11:03;;;;;;;8.57;3.40;;;;;;;;;;4974879;28;93225;-88
2023/05/07 13:13:30;;;;;;;7.18;3.08;;;;;;;;;;4980025;28;95511;-89
2023/05/07 13:15:58;;;;;;;9.85;3.78;;;;;;;;;;4971528;28;92472;-92
2023/05/07 13:18:26;;;;;;;7.57;4.38;;;;;;;;;;4966608;28;94215;-86
2023/05/07 13:20:53;;;;;;;7.47;4.00;;;;;;;;;;4981747;28;93561;-87
2023/05/07 13:23:20;;;;;;;;;;;;;;;;;;4971921;28;92447;-90
2023/05/07 13:25:47;;;;;;;9.60;4.90;;;;;;;;;;4964729;28;92622;-88
2023/05/07 13:28:15;;;;;;;9.43;4.00;;;;;;;;;;4974170;28;96668;-88
2023/05/07 13:30:42;;;;;;;8.02;4.10;;;;;;;;;;4971634;28;91905;-84
2023/05/07 13:33:09;;;;;;;9.65;4.10;;;;;;;;;;4941893;28;94965;-90
2023/05/07 13:35:36;;;;;;;10.57;5.55;;;;;;;;;;4964369;28;93180;-87
2023/05/07 13:38:02;;;;;;;11.48;6.82;;;;;;;;;;4955406;28;95043;-90
2023/05/07 13:40:29;;;;;;;8.02;3.65;;;;;;;;;;4948732;28;93136;-89
2023/05/07 13:42:58;;;;;;;11.65;6.57;;;;;;;;;;4951869;28;92600;-88
2023/05/07 13:45:29;;;;;;;12.82;7.10;;;;;;;;;;4955544;28;92522;-90
2023/05/07 13:47:56;;;;;;;11.10;6.55;;;;;;;;;;4965481;28;92454;-87
2023/05/07 13:50:23;;;;;;;12.98;7.28;;;;;;;;;;4956521;28;92502;-86
2023/05/07 13:52:52;;;;;;;16.95;11.07;;;;;;;;;;4952183;28;92710;-87
2023/05/07 13:55:20;;;;;;;16.08;9.32;;;;;;;;;;4940138;28;92423;-81
2023/05/07 13:57:46;;;;;;;16.10;10.07;;;;;;;;;;4953475;28;92703;-83
2023/05/07 14:00:13;;;;;;;16.45;9.93;;;;;;;;;;4950569;28;93170;-85
2023/05/07 14:02:43;;;;;;;10.50;5.57;;;;;;;;;;4950293;28;95365;-85
2023/05/07 14:05:10;;;;;;;12.23;7.20;;;;;;;;;;4953024;28;95656;-86
2023/05/07 14:07:37;;;;;;;10.98;5.88;;;;;;;;;;4949766;28;92986;-85
2023/05/07 14:10:04;;;;;;;14.10;9.20;;;;;;;;;;4951797;28;92424;-84
2023/05/07 14:12:31;;;;;;;13.45;8.40;;;;;;;;;;4950569;28;93958;-85
2023/05/07 14:14:57;;;;;;;;;;;;;;;;;;4951592;28;93651;-84
2023/05/07 14:17:26;;;;;;;13.32;8.18;;;;;;;;;;4954252;28;103362;-83
2023/05/07 14:19:54;;;;;;;13.20;9.00;;;;;;;;;;4954704;28;91753;-87
2023/05/07 14:22:21;;;;;;;15.48;10.73;;;;;;;;;;4952710;28;92503;-87
2023/05/07 14:24:48;;;;;;;16.02;9.40;;;;;;;;;;4956533;28;93375;-89
2023/05/07 14:27:31;;;;;;;16.23;10.15;;;;;;;;;;4954269;28;94882;-84
2023/05/07 14:29:58;;;;;;;14.90;8.95;;;;;;;;;;4958618;28;92783;-88
2023/05/07 14:32:24;;;;;;;14.55;8.98;;;;;;;;;;4956901;28;92435;-84
2023/05/07 14:34:51;;;;;;;12.70;7.72;;;;;;;;;;4954678;28;93477;-85
2023/05/07 14:37:19;;;;;;;13.05;7.90;;;;;;;;;;4970347;28;92624;-89
2023/05/07 14:39:46;;;;;;;15.63;7.88;;;;;;;;;;4958715;28;92966;-83
2023/05/07 14:42:15;;;;;;;18.65;11.27;;;;;;;;;;4952993;28;92707;-85
2023/05/07 14:44:42;;;;;;;15.43;9.27;;;;;;;;;;4965907;28;91848;-89
2023/05/07 14:47:10;;;;;;;19.88;12.75;;;;;;;;;;4949774;28;93107;-84
2023/05/07 14:49:37;;;;;;;18.23;12.20;;;;;;;;;;4958323;28;92579;-81